Time;durP1;ratioP1;P1;durP2;ratioP2;P2;SDS_P1;SDS_P2;PMS_P1;PMS_P2;Temp;Humidity;BMP_temperature;BMP_pressure;BME280_temperature;BME280_humidity;BME280_pressure;Samples;Min_cycle;Max_cycle;Signal;HPM_P1;HPM_P2
2021/06/23 00:01:38;;;;;;;10.60;4.50;;;;;;;28.85;47.72;100767.88;5077484;28;20063;-44
2021/06/23 00:04:03;;;;;;;17.52;4.97;;;;;;;28.83;47.81;100775.25;5076879;28;20048;-44
2021/06/23 00:06:29;;;;;;;10.45;4.60;;;;;;;28.78;47.83;100774.97;5076759;28;20397;-44
2021/06/23 00:08:55;;;;;;;10.00;4.57;;;;;;;28.75;47.65;100774.50;5076398;28;20394;-44
2021/06/23 00:11:21;;;;;;;4.85;4.38;;;;;;;28.72;47.63;100775.69;5076474;28;20052;-44
2021/06/23 00:13:51;;;;;;;6.60;4.22;;;;;;;28.68;47.71;100763.63;5076063;28;20045;-44
2021/06/23 00:16:17;;;;;;;9.52;5.20;;;;;;;28.69;47.62;100768.00;5058485;28;20056;-44
2021/06/23 00:18:42;;;;;;;7.80;4.75;;;;;;;28.69;47.58;100770.66;5076585;28;20074;-44
2021/06/23 00:21:08;;;;;;;6.40;4.30;;;;;;;28.66;47.80;100765.66;5075340;28;20032;-45
2021/06/23 00:23:34;;;;;;;12.05;4.47;;;;;;;28.65;47.65;100769.31;5076360;28;20040;-45
2021/06/23 00:26:05;;;;;;;8.27;4.47;;;;;;;28.62;47.79;100775.06;5076949;28;20486;-44
2021/06/23 00:28:31;;;;;;;7.55;4.63;;;;;;;28.58;47.87;100776.41;5075076;28;20094;-44
2021/06/23 00:30:57;;;;;;;6.00;4.75;;;;;;;28.55;47.75;100782.16;5076321;28;20086;-45
2021/06/23 00:33:25;;;;;;;7.03;4.43;;;;;;;28.52;47.90;100776.28;5075023;28;20045;-44
2021/06/23 00:35:50;;;;;;;10.10;4.45;;;;;;;28.43;47.73;100764.75;5059051;28;20072;-44
2021/06/23 00:38:16;;;;;;;8.23;4.65;;;;;;;28.48;47.63;100780.34;5056520;28;20041;-44
2021/06/23 00:40:42;;;;;;;6.10;4.53;;;;;;;28.49;47.79;100776.66;5040004;28;20064;-44
2021/06/23 00:43:08;;;;;;;6.60;4.50;;;;;;;28.46;47.97;100772.47;5036145;28;20037;-44
2021/06/23 00:45:33;;;;;;;5.72;4.50;;;;;;;28.44;47.71;100779.84;5034883;28;20052;-44
2021/06/23 00:47:59;;;;;;;9.85;4.30;;;;;;;28.43;47.69;100772.81;5034826;28;20493;-44
2021/06/23 00:50:26;;;;;;;8.70;4.65;;;;;;;28.43;48.07;100775.50;5018522;28;20419;-45
2021/06/23 00:53:19;;;;;;;9.98;4.68;;;;;;;28.39;47.93;100780.41;5035385;28;20053;-44
2021/06/23 00:55:46;;;;;;;6.47;4.57;;;;;;;28.37;47.89;100782.41;5050334;28;20039;-44
2021/06/23 00:58:12;;;;;;;5.72;4.35;;;;;;;28.34;48.06;100780.06;5037682;28;20079;-44
2021/06/23 01:00:38;;;;;;;7.32;4.30;;;;;;;28.33;48.16;100773.06;5054612;28;20533;-44
2021/06/23 01:03:04;;;;;;;7.15;4.50;;;;;;;28.31;47.85;100771.53;5055741;28;20041;-44
2021/06/23 01:05:32;;;;;;;8.65;4.45;;;;;;;28.29;48.01;100765.50;5056260;28;20056;-44
2021/06/23 01:07:59;;;;;;;5.80;4.68;;;;;;;28.30;48.15;100775.25;5037909;28;20410;-44
2021/06/23 01:10:31;;;;;;;5.05;4.35;;;;;;;28.32;48.17;100778.59;5022207;28;20037;-44
2021/06/23 01:13:39;;;;;;;4.95;4.38;;;;;;;28.30;47.89;100767.19;5038080;28;20055;-44
2021/06/23 01:16:11;;;;;;;9.55;4.55;;;;;;;28.29;48.23;100766.34;5046374;28;20514;-45
2021/06/23 01:18:37;;;;;;;6.88;4.15;;;;;;;28.28;47.87;100771.88;5055517;28;20041;-44
2021/06/23 01:21:04;;;;;;;7.00;4.68;;;;;;;28.25;48.32;100774.91;5037158;28;20095;-43
2021/06/23 01:23:30;;;;;;;10.50;4.35;;;;;;;28.23;48.27;100776.97;5034808;28;20038;-43
2021/06/23 01:25:56;;;;;;;10.57;5.00;;;;;;;28.16;48.31;100779.50;5034184;28;20040;-43
2021/06/23 01:28:22;;;;;;;8.75;4.88;;;;;;;28.01;48.83;100778.50;5051903;28;20587;-43
2021/06/23 01:31:08;;;;;;;6.35;4.65;;;;;;;27.82;48.93;100771.72;5054343;28;20052;-43
2021/06/23 01:33:36;;;;;;;14.95;4.80;;;;;;;27.75;49.16;100777.94;5053678;28;20052;-43
2021/06/23 01:36:01;;;;;;;11.85;4.88;;;;;;;27.68;49.53;100783.16;5053648;28;20045;-43
2021/06/23 01:38:27;;;;;;;9.63;4.68;;;;;;;27.61;49.69;100782.19;5053891;28;20052;-43
2021/06/23 01:40:53;;;;;;;7.18;4.50;;;;;;;27.54;49.89;100783.88;5053797;28;20068;-43
2021/06/23 01:43:20;;;;;;;7.00;4.40;;;;;;;27.46;50.26;100789.25;5053513;28;20100;-43
2021/06/23 01:45:46;;;;;;;9.30;4.50;;;;;;;27.41;50.13;100786.22;5053785;28;20509;-43
2021/06/23 01:48:17;;;;;;;12.07;5.15;;;;;;;27.36;50.44;100783.19;5054842;28;20033;-43
2021/06/23 01:50:53;;;;;;;11.40;4.60;;;;;;;27.33;50.70;100787.06;5054839;28;20094;-43
2021/06/23 01:53:19;;;;;;;6.75;4.57;;;;;;;27.33;50.48;100796.94;5053654;28;20048;-43
2021/06/23 01:55:47;;;;;;;11.02;4.93;;;;;;;27.31;50.47;100796.28;5053409;28;20044;-43
2021/06/23 01:58:13;;;;;;;9.68;4.40;;;;;;;27.29;50.65;100792.94;5054375;28;20506;-43
2021/06/23 02:00:48;;;;;;;7.40;4.63;;;;;;;27.27;50.64;100797.63;5053551;28;20490;-43
2021/06/23 02:03:53;;;;;;;7.22;4.47;;;;;;;27.25;50.93;100799.63;5053397;28;20053;-43
2021/06/23 02:06:47;;;;;;;7.63;4.65;;;;;;;27.21;51.08;100795.63;5053156;28;20512;-44
2021/06/23 02:09:29;;;;;;;4.93;4.50;;;;;;;27.17;51.12;100791.59;5036933;28;20498;-43
2021/06/23 02:12:29;;;;;;;6.10;4.20;;;;;;;27.16;51.63;100788.06;5053313;28;20052;-43
2021/06/23 02:15:05;;;;;;;8.20;4.47;;;;;;;27.21;51.43;100791.09;5052724;28;20526;-43
2021/06/23 02:17:34;;;;;;;11.52;4.72;;;;;;;27.22;51.68;100802.66;5052931;28;20569;-43
2021/06/23 02:20:09;;;;;;;11.38;4.50;;;;;;;27.21;51.85;100795.63;5037242;28;20052;-43
2021/06/23 02:22:38;;;;;;;14.05;5.40;;;;;;;27.21;51.63;100792.94;5036714;28;20502;-44
2021/06/23 02:25:17;;;;;;;7.20;4.90;;;;;;;27.20;51.97;100799.28;5053074;28;20052;-43
2021/06/23 02:27:48;;;;;;;15.32;5.18;;;;;;;27.21;52.12;100793.78;5022429;28;20067;-43
2021/06/23 02:30:15;;;;;;;11.25;4.97;;;;;;;27.24;52.16;100793.44;5019991;28;20493;-43
2021/06/23 02:32:47;;;;;;;9.02;4.68;;;;;;;27.22;52.35;100790.09;5052960;28;20379;-44
2021/06/23 02:35:13;;;;;;;5.50;4.72;;;;;;;27.20;52.58;100786.72;5045257;28;20068;-43
2021/06/23 02:37:47;;;;;;;10.40;4.90;;;;;;;27.20;52.48;100791.25;5032625;28;20060;-43
2021/06/23 02:40:14;;;;;;;13.63;5.03;;;;;;;27.20;52.81;100793.94;5032751;28;20124;-43
2021/06/23 02:42:46;;;;;;;10.38;4.63;;;;;;;27.21;53.01;100800.97;5032778;28;20487;-42
2021/06/23 02:45:15;;;;;;;15.68;5.00;;;;;;;27.19;53.07;100790.41;5032343;28;20053;-43
2021/06/23 02:47:43;;;;;;;8.77;4.95;;;;;;;27.20;53.24;100789.41;5048958;28;20053;-43
2021/06/23 02:50:23;;;;;;;8.30;5.03;;;;;;;27.19;53.56;100794.97;5017844;28;20049;-43
2021/06/23 02:53:07;;;;;;;10.85;5.38;;;;;;;27.20;53.72;100799.28;5033501;28;20098;-43
2021/06/23 02:55:33;;;;;;;12.23;5.43;;;;;;;27.20;53.42;100797.44;5032206;28;20041;-43
2021/06/23 02:57:58;;;;;;;6.88;5.30;;;;;;;27.22;53.68;100797.31;5032484;28;20041;-43
2021/06/23 03:00:24;;;;;;;9.38;5.35;;;;;;;27.27;53.37;100800.28;5015714;28;20041;-44
2021/06/23 03:02:51;;;;;;;10.02;5.95;;;;;;;27.26;53.67;100799.47;5033074;28;20048;-43
2021/06/23 03:05:17;;;;;;;14.18;5.22;;;;;;;27.28;53.59;100796.63;5032330;28;20042;-43
2021/06/23 03:07:43;;;;;;;12.80;5.75;;;;;;;27.28;53.29;100800.16;5033908;28;20046;-43
2021/06/23 03:10:13;;;;;;;10.63;5.82;;;;;;;27.29;53.07;100795.63;5035437;28;20449;-48
2021/06/23 03:12:58;;;;;;;12.75;5.95;;;;;;;27.28;53.34;100802.81;5030838;28;20038;-43
2021/06/23 03:15:32;;;;;;;18.23;6.70;;;;;;;27.29;53.30;100792.94;5030959;28;20516;-43
2021/06/23 03:18:09;;;;;;;15.98;6.00;;;;;;;27.30;53.33;100794.59;5031187;28;20037;-43
2021/06/23 03:20:35;;;;;;;14.13;6.25;;;;;;;27.32;53.44;100804.13;5033324;28;20068;-43
2021/06/23 03:23:02;;;;;;;13.40;6.63;;;;;;;27.37;53.39;100806.31;5032118;28;20056;-44
2021/06/23 03:25:28;;;;;;;22.88;7.75;;;;;;;27.39;53.53;100804.31;5033192;28;20041;-44
2021/06/23 03:27:54;;;;;;;16.77;7.20;;;;;;;27.42;53.69;100804.00;5032850;28;20049;-44
2021/06/23 03:30:22;;;;;;;20.98;7.47;;;;;;;27.47;53.25;100801.66;5031402;28;20042;-44
2021/06/23 03:32:50;;;;;;;31.60;8.77;;;;;;;27.49;53.48;100796.94;5032933;28;20102;-44
2021/06/23 03:35:19;;;;;;;29.25;9.30;;;;;;;27.50;53.68;100806.69;5033284;28;20119;-44
2021/06/23 03:37:50;;;;;;;48.88;9.80;;;;;;;27.53;53.25;100803.66;5033111;28;20560;-44
2021/06/23 03:40:17;;;;;;;43.88;8.82;;;;;;;27.55;53.14;100803.50;5033608;28;20573;-44
2021/06/23 03:42:43;;;;;;;39.58;9.23;;;;;;;27.58;53.25;100804.00;5032444;28;20557;-55
2021/06/23 03:45:13;;;;;;;;;;;;;;;27.66;53.22;100793.22;5042508;28;20049;-57
2021/06/23 03:47:40;;;;;;;47.33;9.80;;;;;;;27.68;53.26;100793.88;5034395;28;19921;-55
2021/06/23 03:50:11;;;;;;;44.40;10.13;;;;;;;27.70;52.90;100797.25;5031778;28;20052;-57
2021/06/23 03:52:37;;;;;;;46.90;9.60;;;;;;;27.69;52.65;100790.19;5032905;28;20072;-58
2021/06/23 03:55:05;;;;;;;38.58;10.40;;;;;;;27.74;52.67;100792.38;5041251;28;20047;-57
2021/06/23 03:57:34;;;;;;;41.78;9.77;;;;;;;27.78;52.98;100791.84;5052133;28;20565;-58
2021/06/23 04:00:03;;;;;;;44.97;10.40;;;;;;;27.81;52.76;100786.13;5051685;28;20079;-58
2021/06/23 04:02:31;;;;;;;48.85;9.00;;;;;;;27.84;52.91;100795.72;5055088;28;20040;-56
2021/06/23 04:04:56;;;;;;;39.38;9.27;;;;;;;27.88;52.85;100799.72;5069038;28;20037;-56
2021/06/23 04:07:27;;;;;;;32.92;8.70;;;;;;;27.92;52.87;100796.50;5071486;28;20508;-57
2021/06/23 04:09:53;;;;;;;44.20;8.57;;;;;;;27.98;52.65;100799.53;5072689;28;20041;-58
2021/06/23 04:12:28;;;;;;;33.67;8.43;;;;;;;27.99;52.41;100801.19;5054499;28;20056;-57
2021/06/23 04:14:54;;;;;;;34.42;8.88;;;;;;;28.01;52.46;100802.69;5057675;28;20052;-57
2021/06/23 04:17:20;;;;;;;33.75;7.97;;;;;;;28.07;52.31;100803.88;5051166;28;20045;-57
2021/06/23 04:19:47;;;;;;;30.30;8.18;;;;;;;28.12;52.42;100806.88;5052585;28;20486;-56
2021/06/23 04:22:33;;;;;;;28.80;7.50;;;;;;;28.14;52.33;100803.00;5048264;28;20140;-58
2021/06/23 04:25:08;;;;;;;19.02;7.45;;;;;;;28.19;52.30;100802.50;5051132;28;20143;-58
2021/06/23 04:27:34;;;;;;;20.38;8.20;;;;;;;28.22;51.82;100797.59;5052443;28;20405;-58
2021/06/23 04:30:03;;;;;;;23.55;8.32;;;;;;;28.24;52.09;100798.25;5051762;28;20029;-57
2021/06/23 04:32:28;;;;;;;22.17;7.97;;;;;;;28.25;52.07;100793.72;5051266;28;20387;-58
2021/06/23 04:35:06;;;;;;;22.48;7.85;;;;;;;28.26;51.76;100787.34;5051503;28;20045;-58
2021/06/23 04:37:35;;;;;;;21.55;7.80;;;;;;;28.28;51.62;100788.00;5052370;28;20049;-58
2021/06/23 04:40:02;;;;;;;27.95;7.90;;;;;;;28.29;51.88;100787.00;5051145;28;20120;-57
2021/06/23 04:42:30;;;;;;;29.77;9.17;;;;;;;28.32;51.86;100792.84;5052664;28;20033;-58
2021/06/23 04:44:56;;;;;;;19.95;7.68;;;;;;;28.37;51.83;100778.91;5054940;28;20041;-58
2021/06/23 04:47:23;;;;;;;26.45;8.68;;;;;;;28.41;51.71;100790.94;5054724;28;20053;-58
2021/06/23 04:49:50;;;;;;;29.58;8.70;;;;;;;28.46;51.81;100791.28;5055998;28;20384;-56
2021/06/23 04:52:19;;;;;;;23.35;8.23;;;;;;;28.50;51.51;100794.44;5054578;28;20520;-57
2021/06/23 04:54:45;;;;;;;24.15;8.05;;;;;;;28.51;51.74;100796.94;5055615;28;20072;-56
2021/06/23 04:57:12;;;;;;;26.38;8.18;;;;;;;28.51;51.77;100796.09;5046618;28;20041;-58
2021/06/23 04:59:38;;;;;;;31.77;8.93;;;;;;;28.53;51.95;100803.00;5055838;28;20068;-58
2021/06/23 05:02:04;;;;;;;27.67;8.43;;;;;;;28.60;52.05;100805.81;5054384;28;20174;-59
2021/06/23 05:04:30;;;;;;;21.70;9.07;;;;;;;28.63;51.83;100803.59;5054514;28;20037;-58
2021/06/23 05:06:56;;;;;;;28.88;8.23;;;;;;;28.68;51.73;100814.69;5055642;28;20052;-58
2021/06/23 05:09:21;;;;;;;24.33;8.95;;;;;;;28.70;51.50;100807.28;5055687;28;20099;-58
2021/06/23 05:11:47;;;;;;;30.38;9.05;;;;;;;28.72;51.98;100809.81;5055628;28;20102;-59
2021/06/23 05:14:12;;;;;;;25.38;8.38;;;;;;;28.75;51.81;100814.81;5055500;28;20053;-56
2021/06/23 05:16:38;;;;;;;25.13;8.60;;;;;;;28.79;51.57;100806.22;5056091;28;20037;-58
2021/06/23 05:19:04;;;;;;;27.58;8.30;;;;;;;28.82;51.70;100810.41;5054263;28;20045;-57
2021/06/23 05:21:34;;;;;;;20.48;9.15;;;;;;;28.80;51.74;100807.88;5055481;28;20469;-57
2021/06/23 05:24:00;;;;;;;29.38;8.90;;;;;;;28.83;51.97;100807.53;5055980;28;20144;-58
2021/06/23 05:26:26;;;;;;;25.80;8.80;;;;;;;28.89;51.66;100811.38;5055058;28;20091;-58
2021/06/23 05:28:51;;;;;;;27.00;7.82;;;;;;;28.93;51.24;100808.13;5055283;28;20037;-58
2021/06/23 05:31:17;;;;;;;22.17;8.15;;;;;;;29.00;50.79;100804.72;5053822;28;20414;-58
2021/06/23 05:33:42;;;;;;;14.70;7.68;;;;;;;29.04;50.88;100803.34;5055188;28;20048;-58
2021/06/23 05:36:08;;;;;;;24.23;7.88;;;;;;;29.08;50.87;100802.81;5054010;28;20037;-58
2021/06/23 05:38:34;;;;;;;25.90;7.70;;;;;;;29.11;50.70;100804.28;5055123;28;20441;-58
2021/06/23 05:40:59;;;;;;;28.13;8.27;;;;;;;29.15;50.20;100800.25;5055075;28;20045;-55
2021/06/23 05:43:25;;;;;;;20.48;7.75;;;;;;;29.17;49.92;100799.03;5055032;28;20490;-58
2021/06/23 05:45:50;;;;;;;24.77;8.23;;;;;;;29.21;49.71;100799.50;5054999;28;20041;-59
2021/06/23 05:48:16;;;;;;;27.80;7.75;;;;;;;29.22;50.35;100796.63;5054584;28;20033;-58
2021/06/23 05:50:43;;;;;;;19.45;7.88;;;;;;;29.25;49.89;100796.31;5054628;28;20090;-57
2021/06/23 05:53:09;;;;;;;20.98;8.13;;;;;;;29.27;49.88;100798.81;5054496;28;20127;-58
2021/06/23 05:55:36;;;;;;;32.33;8.18;;;;;;;29.30;49.77;100793.06;5053949;28;20041;-57
2021/06/23 05:58:01;;;;;;;27.95;8.30;;;;;;;29.31;49.46;100787.50;5054488;28;20051;-56
2021/06/23 06:00:27;;;;;;;27.90;9.02;;;;;;;29.35;49.14;100791.47;5054454;28;20036;-58
2021/06/23 06:02:53;;;;;;;20.15;7.40;;;;;;;29.38;49.45;100796.50;5054681;28;20045;-58
2021/06/23 06:05:18;;;;;;;16.40;8.00;;;;;;;29.40;49.39;100788.25;5054878;28;20378;-57
2021/06/23 06:07:44;;;;;;;17.48;7.57;;;;;;;29.41;49.70;100790.78;5054412;28;20041;-57
2021/06/23 06:10:10;;;;;;;24.90;7.57;;;;;;;29.45;49.21;100785.84;5054648;28;20071;-57
2021/06/23 06:12:36;;;;;;;18.48;7.78;;;;;;;29.49;49.70;100789.84;5049796;28;20131;-59
2021/06/23 06:15:02;;;;;;;26.77;7.32;;;;;;;29.54;49.42;100787.44;5054350;28;20053;-59
2021/06/23 06:17:37;;;;;;;19.35;7.25;;;;;;;29.60;48.65;100789.41;5054022;28;20494;-59
2021/06/23 06:20:06;;;;;;;21.85;7.70;;;;;;;29.65;49.07;100786.97;5054295;28;20048;-59
2021/06/23 06:22:32;;;;;;;13.57;7.32;;;;;;;29.69;49.15;100788.28;5063711;28;20036;-59
2021/06/23 06:24:58;;;;;;;21.42;7.75;;;;;;;29.71;48.81;100786.25;5061754;28;20086;-58
2021/06/23 06:27:24;;;;;;;23.05;7.55;;;;;;;29.75;48.85;100784.84;5048056;28;20045;-59
2021/06/23 06:29:50;;;;;;;21.40;7.95;;;;;;;29.81;48.64;100784.09;5053412;28;20048;-57
2021/06/23 06:32:15;;;;;;;30.92;7.72;;;;;;;29.87;48.32;100790.66;5053304;28;20041;-60
2021/06/23 06:34:41;;;;;;;19.65;7.53;;;;;;;29.91;48.99;100790.09;5053135;28;20049;-58
2021/06/23 06:37:07;;;;;;;17.25;7.53;;;;;;;29.94;48.74;100791.59;5052623;28;20178;-55
2021/06/23 06:39:32;;;;;;;15.38;7.25;;;;;;;29.94;48.94;100789.72;5052970;28;20487;-49
2021/06/23 06:41:58;;;;;;;21.60;7.35;;;;;;;30.00;48.73;100795.38;5052873;28;20494;-57
2021/06/23 06:44:27;;;;;;;19.05;7.95;;;;;;;30.05;48.57;100799.19;5052921;28;20048;-55
2021/06/23 06:46:53;;;;;;;17.52;6.93;;;;;;;30.09;48.46;100797.78;5052777;28;20049;-57
2021/06/23 06:49:19;;;;;;;16.65;6.90;;;;;;;30.12;48.54;100801.97;5052779;28;20037;-55
2021/06/23 06:51:44;;;;;;;14.57;6.55;;;;;;;30.15;47.69;100801.59;5052666;28;20064;-56
2021/06/23 06:54:10;;;;;;;16.58;6.85;;;;;;;30.22;47.61;100797.97;5050017;28;20047;-55
2021/06/23 06:56:35;;;;;;;12.00;6.45;;;;;;;30.29;46.98;100800.75;5050639;28;20095;-54
2021/06/23 06:59:01;;;;;;;22.60;6.35;;;;;;;30.34;46.45;100803.69;5035727;28;20397;-52
2021/06/23 07:01:27;;;;;;;11.45;5.90;;;;;;;30.40;45.56;100802.97;5047871;28;20041;-54
2021/06/23 07:03:52;;;;;;;9.40;5.65;;;;;;;30.47;45.41;100803.88;5033955;28;20049;-56
2021/06/23 07:06:18;;;;;;;19.50;5.50;;;;;;;30.52;44.73;100796.06;5063540;28;20044;-57
2021/06/23 07:08:44;;;;;;;13.32;4.68;;;;;;;30.56;44.62;100800.06;5072424;28;20044;-57
2021/06/23 07:11:09;;;;;;;15.93;5.18;;;;;;;30.61;44.41;100800.31;5065129;28;20134;-58
2021/06/23 07:13:35;;;;;;;14.73;4.88;;;;;;;30.64;43.54;100791.00;5072071;28;20090;-57
2021/06/23 07:16:00;;;;;;;13.07;4.70;;;;;;;30.69;43.29;100797.50;5053767;28;20040;-58
2021/06/23 07:18:26;;;;;;;14.20;4.38;;;;;;;30.75;42.39;100796.75;5052376;28;20110;-55
2021/06/23 07:20:52;;;;;;;11.93;4.13;;;;;;;30.78;42.45;100799.06;5052435;28;20040;-58
2021/06/23 07:23:20;;;;;;;7.93;3.72;;;;;;;30.82;41.93;100797.66;5045710;28;20033;-52
2021/06/23 07:25:46;;;;;;;18.98;3.92;;;;;;;30.91;41.76;100799.19;5032500;28;20045;-57
2021/06/23 07:28:14;;;;;;;13.10;3.35;;;;;;;30.95;41.26;100794.25;5033034;28;20044;-53
2021/06/23 07:30:44;;;;;;;11.35;3.78;;;;;;;30.99;41.00;100801.78;5048961;28;20047;-60
2021/06/23 07:33:10;;;;;;;;;;;;;;;31.02;41.06;100797.03;5072658;28;20037;-56
2021/06/23 07:38:20;;;;;;;11.50;3.90;;;;;;;31.09;40.74;100806.00;5072285;28;20091;-48
2021/06/23 07:43:14;;;;;;;8.90;3.95;;;;;;;31.12;40.81;100808.34;5072033;28;20044;-52
2021/06/23 07:45:51;;;;;;;5.90;3.92;;;;;;;31.09;40.63;100797.91;5072159;28;20476;-51
2021/06/23 07:48:20;;;;;;;10.98;4.07;;;;;;;31.17;40.40;100805.88;5067272;28;20132;-58
2021/06/23 07:50:56;;;;;;;11.07;3.88;;;;;;;31.18;40.19;100805.69;5071706;28;20051;-59
2021/06/23 07:53:32;;;;;;;15.85;4.03;;;;;;;31.19;40.45;100806.50;5068815;28;20062;-59
2021/06/23 07:56:08;;;;;;;11.50;3.63;;;;;;;31.17;40.69;100808.56;5051773;28;20094;-59
2021/06/23 08:09:17;;;;;;;14.07;4.50;;;;;;;31.17;41.00;100808.56;5051734;28;20098;-53
2021/06/23 08:11:46;;;;;;;14.40;4.30;;;;;;;31.14;40.79;100812.50;5051916;28;20083;-50
2021/06/23 08:14:12;;;;;;;13.50;4.72;;;;;;;31.16;40.67;100815.00;5051424;28;20587;-53
2021/06/23 08:16:38;;;;;;;18.95;4.80;;;;;;;31.18;40.66;100818.34;5051862;28;20048;-51
2021/06/23 08:19:04;;;;;;;21.77;4.35;;;;;;;31.20;40.90;100819.81;5045190;28;20045;-49
2021/06/23 08:21:30;;;;;;;15.85;4.70;;;;;;;31.24;40.97;100825.66;5039537;28;20083;-54
2021/06/23 08:23:55;;;;;;;14.45;3.95;;;;;;;31.30;40.96;100816.78;5055511;28;20044;-49
2021/06/23 08:26:21;;;;;;;23.48;4.38;;;;;;;31.37;41.04;100817.69;5036632;28;20103;-49
2021/06/23 08:28:47;;;;;;;10.95;4.72;;;;;;;31.45;41.21;100820.22;5035596;28;20042;-54
2021/06/23 08:31:12;;;;;;;21.73;4.53;;;;;;;31.50;40.81;100820.53;5051266;28;20075;-49
2021/06/23 08:33:38;;;;;;;18.02;4.35;;;;;;;31.58;40.81;100820.34;5054332;28;20060;-51
2021/06/23 08:36:04;;;;;;;15.13;4.40;;;;;;;31.63;40.36;100823.31;5055367;28;20091;-47
2021/06/23 08:38:30;;;;;;;18.75;4.43;;;;;;;31.66;39.95;100817.53;5051690;28;20041;-52
2021/06/23 08:40:55;;;;;;;10.20;4.30;;;;;;;31.68;40.12;100822.72;5035220;28;20061;-55
2021/06/23 08:43:21;;;;;;;13.23;4.22;;;;;;;31.70;39.74;100818.81;5050647;28;20044;-50
2021/06/23 08:45:47;;;;;;;20.17;5.07;;;;;;;31.74;40.20;100809.25;5052644;28;20048;-53
2021/06/23 08:48:13;;;;;;;14.90;4.80;;;;;;;31.78;39.96;100815.94;5057832;28;20497;-52
2021/06/23 08:50:38;;;;;;;18.95;4.13;;;;;;;31.82;40.38;100811.81;5075280;28;20049;-50
2021/06/23 08:53:04;;;;;;;13.55;4.40;;;;;;;31.86;39.89;100815.78;5074786;28;20079;-51
2021/06/23 08:55:30;;;;;;;13.23;4.35;;;;;;;31.88;39.90;100816.41;5054130;28;20040;-48
2021/06/23 08:57:55;;;;;;;25.38;4.53;;;;;;;31.89;39.32;100815.38;5058142;28;20555;-53
2021/06/23 09:00:22;;;;;;;17.08;4.72;;;;;;;31.85;39.60;100807.88;5069150;28;20044;-58
2021/06/23 09:02:48;;;;;;;23.45;4.88;;;;;;;31.80;39.33;100811.19;5064182;28;20075;-56
2021/06/23 09:05:14;;;;;;;14.90;4.63;;;;;;;31.81;39.38;100804.72;5074466;28;20111;-57
2021/06/23 09:07:52;;;;;;;18.67;4.80;;;;;;;31.84;38.78;100806.22;5067305;28;20467;-56
2021/06/23 09:10:21;;;;;;;25.33;5.60;;;;;;;31.86;38.76;100801.44;5074679;28;20071;-56
2021/06/23 09:13:07;;;;;;;16.15;4.75;;;;;;;31.87;38.96;100798.53;5071344;28;20043;-56
2021/06/23 09:15:49;;;;;;;8.40;4.45;;;;;;;31.89;38.81;100795.63;5072185;28;20866;-55
2021/06/23 09:18:25;;;;;;;13.70;4.32;;;;;;;31.93;39.11;100799.63;5074554;28;20060;-56
2021/06/23 09:21:10;;;;;;;17.08;4.53;;;;;;;31.93;39.17;100800.44;5074773;28;20520;-56
2021/06/23 09:23:36;;;;;;;17.90;4.80;;;;;;;31.96;38.82;100802.75;5074223;28;20044;-56
2021/06/23 09:26:21;;;;;;;18.77;4.97;;;;;;;31.98;39.04;100800.66;5062083;28;20037;-56
2021/06/23 09:29:06;;;;;;;19.13;5.93;;;;;;;32.05;38.83;100799.91;5054540;28;20076;-56
2021/06/23 09:31:57;;;;;;;25.38;5.20;;;;;;;32.07;38.84;100792.44;5055835;28;20086;-56
2021/06/23 09:34:34;;;;;;;22.27;4.75;;;;;;;32.09;39.01;100793.06;5054934;28;20489;-56
2021/06/23 09:37:02;;;;;;;13.82;4.53;;;;;;;32.12;38.93;100798.06;5055172;28;20053;-57
2021/06/23 09:39:29;;;;;;;18.95;4.93;;;;;;;32.13;38.63;100797.03;5055118;28;20090;-56
2021/06/23 09:41:57;;;;;;;14.55;4.65;;;;;;;32.15;38.61;100794.97;5055117;28;20041;-55
2021/06/23 09:44:23;;;;;;;15.65;4.90;;;;;;;32.16;38.80;100796.63;5055038;28;20044;-56
2021/06/23 09:46:49;;;;;;;18.20;5.30;;;;;;;32.15;38.74;100795.81;5054112;28;20037;-56
2021/06/23 09:49:25;;;;;;;20.80;5.25;;;;;;;32.16;38.60;100797.47;5053956;28;20033;-56
2021/06/23 09:51:56;;;;;;;11.05;4.80;;;;;;;32.19;38.28;100790.81;5055012;28;20048;-45
2021/06/23 09:54:29;;;;;;;14.70;5.07;;;;;;;32.21;38.54;100788.75;5054910;28;20123;-46
2021/06/23 09:57:01;;;;;;;17.17;4.90;;;;;;;32.20;38.74;100789.81;5054800;28;20137;-45
2021/06/23 09:59:33;;;;;;;13.32;5.30;;;;;;;32.19;38.93;100780.00;5053689;28;20071;-45
2021/06/23 10:01:59;;;;;;;17.73;4.95;;;;;;;32.18;39.78;100789.97;5054771;28;20098;-45
2021/06/23 10:04:35;;;;;;;12.80;5.18;;;;;;;32.18;39.82;100783.75;5054415;28;20037;-46
2021/06/23 10:07:02;;;;;;;11.13;4.90;;;;;;;32.18;40.07;100786.44;5054660;28;20511;-47
2021/06/23 10:09:29;;;;;;;18.30;5.03;;;;;;;32.19;39.94;100786.25;5054515;28;20490;-46
2021/06/23 10:12:02;;;;;;;15.07;5.50;;;;;;;32.19;39.98;100782.72;5054514;28;20041;-46
2021/06/23 10:14:30;;;;;;;16.65;4.93;;;;;;;32.20;40.09;100782.50;5054211;28;20069;-45
2021/06/23 10:17:00;;;;;;;10.25;4.85;;;;;;;32.21;40.56;100777.94;5054392;28;20146;-46
2021/06/23 10:19:25;;;;;;;14.02;5.10;;;;;;;32.22;40.72;100775.03;5054391;28;20056;-45
2021/06/23 10:21:51;;;;;;;16.45;5.20;;;;;;;32.23;40.53;100776.69;5053416;28;20490;-45
2021/06/23 10:24:17;;;;;;;15.02;4.93;;;;;;;32.25;40.71;100771.09;5036534;28;20518;-45
2021/06/23 10:26:49;;;;;;;11.40;4.43;;;;;;;32.26;41.20;100775.47;5054230;28;20037;-45
2021/06/23 10:29:25;;;;;;;9.07;5.20;;;;;;;32.26;41.21;100767.34;5054161;28;20103;-45
2021/06/23 10:31:51;;;;;;;10.75;4.93;;;;;;;32.28;40.95;100762.56;5052660;28;20049;-45
2021/06/23 10:34:17;;;;;;;10.35;4.78;;;;;;;32.28;40.73;100762.56;5054087;28;20064;-45
2021/06/23 10:36:43;;;;;;;11.63;4.68;;;;;;;32.28;40.85;100760.72;5054072;28;20128;-45
2021/06/23 10:39:09;;;;;;;14.13;5.07;;;;;;;32.31;40.93;100756.75;5054021;28;20491;-45
2021/06/23 10:41:45;;;;;;;9.95;4.68;;;;;;;32.32;41.09;100761.97;5053218;28;20048;-45
2021/06/23 10:44:23;;;;;;;9.27;5.07;;;;;;;32.35;41.16;100758.03;5037365;28;20059;-45
2021/06/23 10:46:51;;;;;;;11.07;4.93;;;;;;;32.35;40.98;100752.63;5053860;28;20040;-45
2021/06/23 10:49:37;;;;;;;10.73;5.22;;;;;;;32.37;41.02;100753.22;5053808;28;20041;-45
2021/06/23 10:52:30;;;;;;;12.20;5.82;;;;;;;32.39;40.84;100753.88;5053297;28;20094;-45
2021/06/23 10:54:57;;;;;;;11.32;4.97;;;;;;;32.41;40.73;100757.19;5045373;28;20106;-45
2021/06/23 10:57:43;;;;;;;9.43;4.82;;;;;;;32.42;40.75;100754.31;5054199;28;20485;-45
2021/06/23 11:00:12;;;;;;;9.50;5.13;;;;;;;32.43;40.92;100753.25;5052483;28;20413;-45
2021/06/23 11:02:40;;;;;;;8.97;5.47;;;;;;;32.44;41.07;100752.22;5053554;28;20490;-45
2021/06/23 11:05:07;;;;;;;11.52;5.15;;;;;;;32.47;41.17;100745.56;5053623;28;20637;-46
2021/06/23 11:07:38;;;;;;;8.02;5.22;;;;;;;32.48;40.91;100744.53;5053423;28;20512;-45
2021/06/23 11:10:13;;;;;;;11.75;5.50;;;;;;;32.49;40.97;100741.59;5053514;28;20628;-45
2021/06/23 11:13:00;;;;;;;15.90;5.20;;;;;;;32.52;41.11;100751.22;5053319;28;20068;-45
2021/06/23 11:15:33;;;;;;;9.57;5.30;;;;;;;32.53;41.36;100742.03;5052926;28;20065;-46
2021/06/23 11:18:19;;;;;;;10.18;4.82;;;;;;;32.55;41.26;100739.97;5051869;28;20048;-45
2021/06/23 11:22:13;;;;;;;11.80;5.00;;;;;;;32.56;40.97;100744.31;5070749;28;20398;-46
2021/06/23 11:24:39;;;;;;;8.98;5.15;;;;;;;32.58;40.96;100742.31;5061485;28;20445;-47
2021/06/23 11:27:05;;;;;;;14.60;4.95;;;;;;;32.58;41.14;100742.31;5051047;28;20041;-46
2021/06/23 11:29:31;;;;;;;9.63;5.03;;;;;;;32.60;41.13;100740.22;5052571;28;20051;-49
2021/06/23 11:32:03;;;;;;;14.23;5.10;;;;;;;32.62;41.32;100732.75;5070429;28;20033;-46
2021/06/23 11:34:43;;;;;;;7.60;4.40;;;;;;;32.64;41.29;100719.84;5070770;28;20083;-47
2021/06/23 11:37:16;;;;;;;15.48;4.43;;;;;;;32.66;40.45;100723.16;5069737;28;20082;-57
2021/06/23 11:39:43;;;;;;;18.45;4.55;;;;;;;32.74;39.43;100724.84;5049940;28;20144;-56
2021/06/23 11:42:08;;;;;;;15.25;4.68;;;;;;;32.78;39.23;100726.94;5049951;28;20069;-56
2021/06/23 11:44:35;;;;;;;15.50;4.95;;;;;;;32.84;38.62;100734.22;5049978;28;20076;-55
2021/06/23 11:47:01;;;;;;;20.85;4.88;;;;;;;32.90;38.25;100725.25;5049564;28;20041;-55